sensor_id;sensor_type;location;lat;lon;timestamp;P1;durP1;ratioP1;P2;durP2;ratioP2
56037;SDS011;41907;47.848;9.000;2023-12-20T00:02:18;4.70;;;2.03;;
56037;SDS011;41907;47.848;9.000;2023-12-20T00:04:43;5.82;;;3.88;;
56037;SDS011;41907;47.848;9.000;2023-12-20T00:07:08;4.55;;;2.72;;
56037;SDS011;41907;47.848;9.000;2023-12-20T00:09:34;4.22;;;2.58;;
56037;SDS011;41907;47.848;9.000;2023-12-20T00:11:59;6.68;;;3.17;;
56037;SDS011;41907;47.848;9.000;2023-12-20T00:14:25;5.88;;;2.88;;
56037;SDS011;41907;47.848;9.000;2023-12-20T00:16:50;4.82;;;2.42;;
56037;SDS011;41907;47.848;9.000;2023-12-20T00:19:15;3.50;;;2.10;;
56037;SDS011;41907;47.848;9.000;2023-12-20T00:21:41;2.67;;;1.90;;
56037;SDS011;41907;47.848;9.000;2023-12-20T00:24:06;2.25;;;1.85;;
56037;SDS011;41907;47.848;9.000;2023-12-20T00:26:31;2.33;;;1.90;;
56037;SDS011;41907;47.848;9.000;2023-12-20T00:28:57;2.10;;;1.88;;
56037;SDS011;41907;47.848;9.000;2023-12-20T00:31:22;2.90;;;2.10;;
56037;SDS011;41907;47.848;9.000;2023-12-20T00:33:47;2.67;;;1.90;;
56037;SDS011;41907;47.848;9.000;2023-12-20T00:36:13;3.97;;;2.60;;
56037;SDS011;41907;47.848;9.000;2023-12-20T00:38:38;9.15;;;4.57;;
56037;SDS011;41907;47.848;9.000;2023-12-20T00:41:03;9.32;;;5.45;;
56037;SDS011;41907;47.848;9.000;2023-12-20T00:43:29;7.75;;;4.43;;
56037;SDS011;41907;47.848;9.000;2023-12-20T00:45:54;6.03;;;3.40;;
56037;SDS011;41907;47.848;9.000;2023-12-20T00:48:20;8.40;;;4.90;;
56037;SDS011;41907;47.848;9.000;2023-12-20T00:50:46;7.60;;;5.10;;
56037;SDS011;41907;47.848;9.000;2023-12-20T00:53:11;9.15;;;4.00;;
56037;SDS011;41907;47.848;9.000;2023-12-20T00:55:36;6.07;;;3.17;;
56037;SDS011;41907;47.848;9.000;2023-12-20T00:58:02;9.88;;;6.28;;
56037;SDS011;41907;47.848;9.000;2023-12-20T01:00:27;8.75;;;6.03;;
56037;SDS011;41907;47.848;9.000;2023-12-20T01:02:52;7.28;;;4.80;;
56037;SDS011;41907;47.848;9.000;2023-12-20T01:05:18;8.93;;;4.95;;
56037;SDS011;41907;47.848;9.000;2023-12-20T01:07:44;6.18;;;3.88;;
56037;SDS011;41907;47.848;9.000;2023-12-20T01:10:09;5.07;;;2.95;;
56037;SDS011;41907;47.848;9.000;2023-12-20T01:12:35;4.25;;;2.72;;
56037;SDS011;41907;47.848;9.000;2023-12-20T01:15:01;3.92;;;2.30;;
56037;SDS011;41907;47.848;9.000;2023-12-20T01:17:26;3.97;;;2.47;;
56037;SDS011;41907;47.848;9.000;2023-12-20T01:19:52;7.65;;;2.78;;
56037;SDS011;41907;47.848;9.000;2023-12-20T01:22:17;3.78;;;2.22;;
56037;SDS011;41907;47.848;9.000;2023-12-20T01:24:43;2.75;;;1.70;;
56037;SDS011;41907;47.848;9.000;2023-12-20T01:27:08;2.00;;;1.77;;
56037;SDS011;41907;47.848;9.000;2023-12-20T01:29:33;2.38;;;1.50;;
56037;SDS011;41907;47.848;9.000;2023-12-20T01:31:59;2.53;;;2.05;;
56037;SDS011;41907;47.848;9.000;2023-12-20T01:34:24;3.65;;;2.13;;
56037;SDS011;41907;47.848;9.000;2023-12-20T01:36:49;3.47;;;2.03;;
56037;SDS011;41907;47.848;9.000;2023-12-20T01:39:14;2.70;;;2.15;;
56037;SDS011;41907;47.848;9.000;2023-12-20T01:41:40;3.50;;;2.35;;
56037;SDS011;41907;47.848;9.000;2023-12-20T01:44:05;3.38;;;2.40;;
56037;SDS011;41907;47.848;9.000;2023-12-20T01:46:30;3.22;;;2.40;;
56037;SDS011;41907;47.848;9.000;2023-12-20T01:48:56;3.70;;;2.47;;
56037;SDS011;41907;47.848;9.000;2023-12-20T01:51:22;2.83;;;1.98;;
56037;SDS011;41907;47.848;9.000;2023-12-20T01:53:47;3.90;;;2.55;;
56037;SDS011;41907;47.848;9.000;2023-12-20T01:56:14;3.33;;;2.50;;
56037;SDS011;41907;47.848;9.000;2023-12-20T01:58:44;5.07;;;3.58;;
56037;SDS011;41907;47.848;9.000;2023-12-20T02:01:11;7.55;;;4.65;;
56037;SDS011;41907;47.848;9.000;2023-12-20T02:03:37;4.78;;;3.50;;
56037;SDS011;41907;47.848;9.000;2023-12-20T02:06:03;3.50;;;2.60;;
56037;SDS011;41907;47.848;9.000;2023-12-20T02:08:30;6.05;;;4.00;;
56037;SDS011;41907;47.848;9.000;2023-12-20T02:10:55;7.68;;;3.95;;
56037;SDS011;41907;47.848;9.000;2023-12-20T02:13:21;4.45;;;3.70;;
56037;SDS011;41907;47.848;9.000;2023-12-20T02:15:46;5.40;;;3.60;;
56037;SDS011;41907;47.848;9.000;2023-12-20T02:18:12;8.60;;;4.53;;
56037;SDS011;41907;47.848;9.000;2023-12-20T02:20:40;10.02;;;4.90;;
56037;SDS011;41907;47.848;9.000;2023-12-20T02:23:06;5.63;;;3.78;;
56037;SDS011;41907;47.848;9.000;2023-12-20T02:25:31;4.55;;;3.30;;
56037;SDS011;41907;47.848;9.000;2023-12-20T02:27:56;6.45;;;4.28;;
56037;SDS011;41907;47.848;9.000;2023-12-20T02:30:22;6.97;;;4.55;;
56037;SDS011;41907;47.848;9.000;2023-12-20T02:32:47;6.90;;;4.20;;
56037;SDS011;41907;47.848;9.000;2023-12-20T02:35:14;4.47;;;3.20;;
56037;SDS011;41907;47.848;9.000;2023-12-20T02:37:40;3.75;;;2.95;;
56037;SDS011;41907;47.848;9.000;2023-12-20T02:40:05;6.25;;;3.38;;
56037;SDS011;41907;47.848;9.000;2023-12-20T02:42:31;6.18;;;4.22;;
56037;SDS011;41907;47.848;9.000;2023-12-20T02:44:57;13.45;;;9.27;;
56037;SDS011;41907;47.848;9.000;2023-12-20T02:47:22;16.17;;;11.10;;
56037;SDS011;41907;47.848;9.000;2023-12-20T02:49:47;11.00;;;7.90;;
56037;SDS011;41907;47.848;9.000;2023-12-20T02:52:14;9.00;;;6.03;;
56037;SDS011;41907;47.848;9.000;2023-12-20T02:54:39;11.02;;;8.63;;
56037;SDS011;41907;47.848;9.000;2023-12-20T02:57:04;10.15;;;6.38;;
56037;SDS011;41907;47.848;9.000;2023-12-20T02:59:30;8.13;;;5.15;;
56037;SDS011;41907;47.848;9.000;2023-12-20T03:01:55;6.53;;;3.80;;
56037;SDS011;41907;47.848;9.000;2023-12-20T03:04:20;7.15;;;4.72;;
56037;SDS011;41907;47.848;9.000;2023-12-20T03:06:46;7.07;;;5.13;;
56037;SDS011;41907;47.848;9.000;2023-12-20T03:09:11;7.60;;;5.45;;
56037;SDS011;41907;47.848;9.000;2023-12-20T03:11:37;6.85;;;4.68;;
56037;SDS011;41907;47.848;9.000;2023-12-20T03:14:02;8.85;;;4.97;;
56037;SDS011;41907;47.848;9.000;2023-12-20T03:16:27;8.95;;;6.07;;
56037;SDS011;41907;47.848;9.000;2023-12-20T03:18:53;9.98;;;5.80;;
56037;SDS011;41907;47.848;9.000;2023-12-20T03:21:18;9.13;;;5.28;;
56037;SDS011;41907;47.848;9.000;2023-12-20T03:23:43;9.73;;;5.85;;
56037;SDS011;41907;47.848;9.000;2023-12-20T03:26:09;12.43;;;5.97;;
56037;SDS011;41907;47.848;9.000;2023-12-20T03:28:35;8.48;;;5.50;;
56037;SDS011;41907;47.848;9.000;2023-12-20T03:31:01;8.93;;;5.43;;
56037;SDS011;41907;47.848;9.000;2023-12-20T03:33:27;10.73;;;6.47;;
56037;SDS011;41907;47.848;9.000;2023-12-20T03:35:53;12.02;;;7.10;;
56037;SDS011;41907;47.848;9.000;2023-12-20T03:38:18;12.00;;;7.20;;
56037;SDS011;41907;47.848;9.000;2023-12-20T03:40:44;12.18;;;7.63;;
56037;SDS011;41907;47.848;9.000;2023-12-20T03:43:09;12.95;;;8.38;;
56037;SDS011;41907;47.848;9.000;2023-12-20T03:45:34;14.23;;;7.95;;
56037;SDS011;41907;47.848;9.000;2023-12-20T03:48:00;11.10;;;7.10;;
56037;SDS011;41907;47.848;9.000;2023-12-20T03:50:25;10.80;;;6.85;;
56037;SDS011;41907;47.848;9.000;2023-12-20T03:52:51;11.82;;;7.60;;
56037;SDS011;41907;47.848;9.000;2023-12-20T03:55:17;15.27;;;7.63;;
56037;SDS011;41907;47.848;9.000;2023-12-20T03:57:42;17.83;;;11.18;;
56037;SDS011;41907;47.848;9.000;2023-12-20T04:00:08;20.38;;;11.45;;
56037;SDS011;41907;47.848;9.000;2023-12-20T04:02:37;16.77;;;9.65;;
56037;SDS011;41907;47.848;9.000;2023-12-20T04:05:03;17.73;;;9.40;;
56037;SDS011;41907;47.848;9.000;2023-12-20T04:07:28;20.58;;;8.85;;
56037;SDS011;41907;47.848;9.000;2023-12-20T04:09:54;20.08;;;12.98;;
56037;SDS011;41907;47.848;9.000;2023-12-20T04:12:20;25.75;;;15.13;;
56037;SDS011;41907;47.848;9.000;2023-12-20T04:14:45;18.90;;;11.48;;
56037;SDS011;41907;47.848;9.000;2023-12-20T04:17:11;15.05;;;9.50;;
56037;SDS011;41907;47.848;9.000;2023-12-20T04:19:36;10.35;;;7.30;;
56037;SDS011;41907;47.848;9.000;2023-12-20T04:22:01;10.35;;;6.57;;
56037;SDS011;41907;47.848;9.000;2023-12-20T04:24:27;10.85;;;7.03;;
56037;SDS011;41907;47.848;9.000;2023-12-20T04:26:52;12.77;;;7.57;;
56037;SDS011;41907;47.848;9.000;2023-12-20T04:29:17;11.38;;;7.38;;
56037;SDS011;41907;47.848;9.000;2023-12-20T04:31:43;10.20;;;6.95;;
56037;SDS011;41907;47.848;9.000;2023-12-20T04:34:08;12.60;;;7.90;;
56037;SDS011;41907;47.848;9.000;2023-12-20T04:36:33;10.73;;;7.18;;
56037;SDS011;41907;47.848;9.000;2023-12-20T04:38:59;10.90;;;7.43;;
56037;SDS011;41907;47.848;9.000;2023-12-20T04:41:24;18.77;;;10.20;;
56037;SDS011;41907;47.848;9.000;2023-12-20T04:43:50;14.63;;;8.90;;
56037;SDS011;41907;47.848;9.000;2023-12-20T04:46:15;13.73;;;8.40;;
56037;SDS011;41907;47.848;9.000;2023-12-20T04:48:40;13.20;;;7.82;;
56037;SDS011;41907;47.848;9.000;2023-12-20T04:51:06;12.00;;;8.18;;
56037;SDS011;41907;47.848;9.000;2023-12-20T04:53:31;23.90;;;13.55;;
56037;SDS011;41907;47.848;9.000;2023-12-20T04:55:56;12.50;;;8.07;;
56037;SDS011;41907;47.848;9.000;2023-12-20T04:58:22;13.15;;;8.27;;
56037;SDS011;41907;47.848;9.000;2023-12-20T05:00:47;13.90;;;8.45;;
56037;SDS011;41907;47.848;9.000;2023-12-20T05:03:13;11.35;;;7.07;;
56037;SDS011;41907;47.848;9.000;2023-12-20T05:05:38;20.33;;;12.57;;
56037;SDS011;41907;47.848;9.000;2023-12-20T05:08:04;14.05;;;8.43;;
56037;SDS011;41907;47.848;9.000;2023-12-20T05:10:29;23.58;;;13.75;;
56037;SDS011;41907;47.848;9.000;2023-12-20T05:12:55;15.38;;;9.13;;
56037;SDS011;41907;47.848;9.000;2023-12-20T05:15:20;14.40;;;8.73;;
56037;SDS011;41907;47.848;9.000;2023-12-20T05:17:46;16.77;;;9.80;;
56037;SDS011;41907;47.848;9.000;2023-12-20T05:20:11;13.05;;;8.63;;
56037;SDS011;41907;47.848;9.000;2023-12-20T05:22:36;12.68;;;8.07;;
56037;SDS011;41907;47.848;9.000;2023-12-20T05:25:02;14.15;;;8.15;;
56037;SDS011;41907;47.848;9.000;2023-12-20T05:27:27;11.85;;;8.02;;
56037;SDS011;41907;47.848;9.000;2023-12-20T05:29:52;10.63;;;7.90;;
56037;SDS011;41907;47.848;9.000;2023-12-20T05:32:22;12.88;;;8.13;;
56037;SDS011;41907;47.848;9.000;2023-12-20T05:34:47;13.27;;;8.27;;
56037;SDS011;41907;47.848;9.000;2023-12-20T05:37:12;14.23;;;7.97;;
56037;SDS011;41907;47.848;9.000;2023-12-20T05:39:38;13.85;;;8.68;;
56037;SDS011;41907;47.848;9.000;2023-12-20T05:42:03;14.50;;;8.27;;
56037;SDS011;41907;47.848;9.000;2023-12-20T05:44:29;16.40;;;9.23;;
56037;SDS011;41907;47.848;9.000;2023-12-20T05:46:54;14.60;;;9.15;;
56037;SDS011;41907;47.848;9.000;2023-12-20T05:49:20;13.35;;;8.80;;
56037;SDS011;41907;47.848;9.000;2023-12-20T05:51:46;12.50;;;8.30;;
56037;SDS011;41907;47.848;9.000;2023-12-20T05:54:12;28.40;;;11.57;;
56037;SDS011;41907;47.848;9.000;2023-12-20T05:56:37;33.95;;;15.60;;
56037;SDS011;41907;47.848;9.000;2023-12-20T05:59:03;21.17;;;12.52;;
56037;SDS011;41907;47.848;9.000;2023-12-20T06:01:28;22.00;;;10.60;;
56037;SDS011;41907;47.848;9.000;2023-12-20T06:03:53;27.92;;;12.73;;
56037;SDS011;41907;47.848;9.000;2023-12-20T06:06:19;34.92;;;13.68;;
56037;SDS011;41907;47.848;9.000;2023-12-20T06:08:44;22.52;;;11.18;;
56037;SDS011;41907;47.848;9.000;2023-12-20T06:11:09;16.60;;;9.57;;
56037;SDS011;41907;47.848;9.000;2023-12-20T06:13:35;33.47;;;16.23;;
56037;SDS011;41907;47.848;9.000;2023-12-20T06:16:00;25.25;;;13.43;;
56037;SDS011;41907;47.848;9.000;2023-12-20T06:18:26;15.15;;;10.25;;
56037;SDS011;41907;47.848;9.000;2023-12-20T06:20:51;14.40;;;8.63;;
56037;SDS011;41907;47.848;9.000;2023-12-20T06:23:16;12.43;;;8.77;;
56037;SDS011;41907;47.848;9.000;2023-12-20T06:25:42;16.23;;;9.40;;
56037;SDS011;41907;47.848;9.000;2023-12-20T06:28:09;12.95;;;8.57;;
56037;SDS011;41907;47.848;9.000;2023-12-20T06:30:35;13.50;;;9.13;;
56037;SDS011;41907;47.848;9.000;2023-12-20T06:33:00;16.92;;;11.13;;
56037;SDS011;41907;47.848;9.000;2023-12-20T06:35:26;21.35;;;12.48;;
56037;SDS011;41907;47.848;9.000;2023-12-20T06:37:51;24.40;;;12.13;;
56037;SDS011;41907;47.848;9.000;2023-12-20T06:40:17;15.15;;;9.15;;
56037;SDS011;41907;47.848;9.000;2023-12-20T06:42:44;15.95;;;9.63;;
56037;SDS011;41907;47.848;9.000;2023-12-20T06:45:09;15.25;;;9.77;;
56037;SDS011;41907;47.848;9.000;2023-12-20T06:47:35;15.40;;;8.52;;
56037;SDS011;41907;47.848;9.000;2023-12-20T06:50:00;12.07;;;8.13;;
56037;SDS011;41907;47.848;9.000;2023-12-20T06:52:26;14.30;;;9.15;;
56037;SDS011;41907;47.848;9.000;2023-12-20T06:54:51;12.95;;;9.20;;
56037;SDS011;41907;47.848;9.000;2023-12-20T06:57:17;11.65;;;8.32;;
56037;SDS011;41907;47.848;9.000;2023-12-20T06:59:42;26.55;;;15.75;;
56037;SDS011;41907;47.848;9.000;2023-12-20T07:02:08;36.13;;;20.77;;
56037;SDS011;41907;47.848;9.000;2023-12-20T07:04:33;13.73;;;8.98;;
56037;SDS011;41907;47.848;9.000;2023-12-20T07:06:59;13.43;;;9.15;;
56037;SDS011;41907;47.848;9.000;2023-12-20T07:09:25;14.25;;;9.18;;
56037;SDS011;41907;47.848;9.000;2023-12-20T07:11:51;14.05;;;9.13;;
56037;SDS011;41907;47.848;9.000;2023-12-20T07:14:16;13.98;;;9.27;;
56037;SDS011;41907;47.848;9.000;2023-12-20T07:16:42;14.80;;;9.38;;
56037;SDS011;41907;47.848;9.000;2023-12-20T07:19:07;11.55;;;8.57;;
56037;SDS011;41907;47.848;9.000;2023-12-20T07:21:32;13.43;;;8.63;;
56037;SDS011;41907;47.848;9.000;2023-12-20T07:23:57;11.93;;;8.35;;
56037;SDS011;41907;47.848;9.000;2023-12-20T07:26:23;13.35;;;9.60;;
56037;SDS011;41907;47.848;9.000;2023-12-20T07:28:48;12.93;;;9.07;;
56037;SDS011;41907;47.848;9.000;2023-12-20T07:31:17;13.25;;;8.38;;
56037;SDS011;41907;47.848;9.000;2023-12-20T07:33:42;12.90;;;8.98;;
56037;SDS011;41907;47.848;9.000;2023-12-20T07:36:08;19.48;;;12.68;;
56037;SDS011;41907;47.848;9.000;2023-12-20T07:38:33;22.35;;;14.93;;
56037;SDS011;41907;47.848;9.000;2023-12-20T07:40:59;15.30;;;9.88;;
56037;SDS011;41907;47.848;9.000;2023-12-20T07:43:24;12.55;;;8.95;;
56037;SDS011;41907;47.848;9.000;2023-12-20T07:45:50;22.83;;;13.57;;
56037;SDS011;41907;47.848;9.000;2023-12-20T07:48:15;24.48;;;15.25;;
56037;SDS011;41907;47.848;9.000;2023-12-20T07:50:41;17.50;;;12.85;;
56037;SDS011;41907;47.848;9.000;2023-12-20T07:53:07;20.15;;;11.77;;
56037;SDS011;41907;47.848;9.000;2023-12-20T07:55:32;17.33;;;13.65;;
56037;SDS011;41907;47.848;9.000;2023-12-20T07:57:58;18.50;;;14.15;;
56037;SDS011;41907;47.848;9.000;2023-12-20T08:00:24;19.20;;;13.57;;
56037;SDS011;41907;47.848;9.000;2023-12-20T08:02:49;30.60;;;18.58;;
56037;SDS011;41907;47.848;9.000;2023-12-20T08:05:14;27.75;;;16.90;;
56037;SDS011;41907;47.848;9.000;2023-12-20T08:07:40;22.10;;;14.25;;
56037;SDS011;41907;47.848;9.000;2023-12-20T08:10:05;17.52;;;11.38;;
56037;SDS011;41907;47.848;9.000;2023-12-20T08:12:31;13.40;;;9.18;;
56037;SDS011;41907;47.848;9.000;2023-12-20T08:14:56;16.23;;;10.43;;
56037;SDS011;41907;47.848;9.000;2023-12-20T08:17:22;22.90;;;15.00;;
56037;SDS011;41907;47.848;9.000;2023-12-20T08:19:48;15.35;;;11.10;;
56037;SDS011;41907;47.848;9.000;2023-12-20T08:22:13;16.77;;;10.27;;
56037;SDS011;41907;47.848;9.000;2023-12-20T08:24:39;14.55;;;10.43;;
56037;SDS011;41907;47.848;9.000;2023-12-20T08:27:04;14.80;;;10.57;;
56037;SDS011;41907;47.848;9.000;2023-12-20T08:29:30;13.45;;;9.00;;
56037;SDS011;41907;47.848;9.000;2023-12-20T08:31:56;13.57;;;9.27;;
56037;SDS011;41907;47.848;9.000;2023-12-20T08:34:21;12.55;;;9.10;;
56037;SDS011;41907;47.848;9.000;2023-12-20T08:36:47;11.82;;;8.48;;
56037;SDS011;41907;47.848;9.000;2023-12-20T08:39:12;14.00;;;9.73;;
56037;SDS011;41907;47.848;9.000;2023-12-20T08:41:38;11.77;;;9.00;;
56037;SDS011;41907;47.848;9.000;2023-12-20T08:44:03;12.20;;;8.57;;
56037;SDS011;41907;47.848;9.000;2023-12-20T08:46:29;11.93;;;8.98;;
56037;SDS011;41907;47.848;9.000;2023-12-20T08:48:54;12.63;;;9.40;;
56037;SDS011;41907;47.848;9.000;2023-12-20T08:51:20;11.90;;;7.93;;
56037;SDS011;41907;47.848;9.000;2023-12-20T08:53:46;10.05;;;7.30;;
56037;SDS011;41907;47.848;9.000;2023-12-20T08:56:12;8.90;;;7.47;;
56037;SDS011;41907;47.848;9.000;2023-12-20T08:58:38;12.48;;;7.82;;
56037;SDS011;41907;47.848;9.000;2023-12-20T09:01:03;10.45;;;7.47;;
56037;SDS011;41907;47.848;9.000;2023-12-20T09:03:28;12.38;;;8.20;;
56037;SDS011;41907;47.848;9.000;2023-12-20T09:05:54;11.05;;;8.70;;
56037;SDS011;41907;47.848;9.000;2023-12-20T09:08:19;9.85;;;7.50;;
56037;SDS011;41907;47.848;9.000;2023-12-20T09:10:44;10.23;;;7.60;;
56037;SDS011;41907;47.848;9.000;2023-12-20T09:13:10;9.18;;;6.80;;
56037;SDS011;41907;47.848;9.000;2023-12-20T09:15:35;15.88;;;8.85;;
56037;SDS011;41907;47.848;9.000;2023-12-20T09:18:01;22.83;;;15.57;;
56037;SDS011;41907;47.848;9.000;2023-12-20T09:20:26;23.42;;;16.70;;
56037;SDS011;41907;47.848;9.000;2023-12-20T09:22:52;16.08;;;12.13;;
56037;SDS011;41907;47.848;9.000;2023-12-20T09:25:17;9.85;;;8.35;;
56037;SDS011;41907;47.848;9.000;2023-12-20T09:27:43;10.35;;;7.75;;
56037;SDS011;41907;47.848;9.000;2023-12-20T09:30:08;16.20;;;10.45;;
56037;SDS011;41907;47.848;9.000;2023-12-20T09:32:34;27.33;;;17.30;;
56037;SDS011;41907;47.848;9.000;2023-12-20T09:35:00;19.40;;;13.85;;
56037;SDS011;41907;47.848;9.000;2023-12-20T09:37:26;19.75;;;14.18;;
56037;SDS011;41907;47.848;9.000;2023-12-20T09:39:52;12.20;;;9.95;;
56037;SDS011;41907;47.848;9.000;2023-12-20T09:42:20;18.08;;;13.93;;
56037;SDS011;41907;47.848;9.000;2023-12-20T09:45:03;18.58;;;14.50;;
56037;SDS011;41907;47.848;9.000;2023-12-20T09:47:30;21.20;;;15.00;;
56037;SDS011;41907;47.848;9.000;2023-12-20T09:49:57;23.52;;;16.67;;
56037;SDS011;41907;47.848;9.000;2023-12-20T09:52:22;22.58;;;15.70;;
56037;SDS011;41907;47.848;9.000;2023-12-20T09:54:49;13.52;;;10.68;;
56037;SDS011;41907;47.848;9.000;2023-12-20T09:57:17;13.57;;;9.75;;
56037;SDS011;41907;47.848;9.000;2023-12-20T09:59:42;14.23;;;9.82;;
56037;SDS011;41907;47.848;9.000;2023-12-20T10:02:09;9.38;;;7.30;;
56037;SDS011;41907;47.848;9.000;2023-12-20T10:04:39;11.02;;;9.27;;
56037;SDS011;41907;47.848;9.000;2023-12-20T10:07:11;14.57;;;10.45;;
56037;SDS011;41907;47.848;9.000;2023-12-20T10:09:36;11.63;;;9.02;;
56037;SDS011;41907;47.848;9.000;2023-12-20T10:12:02;8.60;;;7.43;;
56037;SDS011;41907;47.848;9.000;2023-12-20T10:14:30;8.70;;;7.15;;
56037;SDS011;41907;47.848;9.000;2023-12-20T10:17:01;10.48;;;8.43;;
56037;SDS011;41907;47.848;9.000;2023-12-20T10:19:28;32.85;;;17.00;;
56037;SDS011;41907;47.848;9.000;2023-12-20T10:21:53;19.58;;;9.15;;
56037;SDS011;41907;47.848;9.000;2023-12-20T10:24:19;11.82;;;6.82;;
56037;SDS011;41907;47.848;9.000;2023-12-20T10:26:45;45.75;;;32.92;;
56037;SDS011;41907;47.848;9.000;2023-12-20T10:29:10;37.35;;;24.45;;
56037;SDS011;41907;47.848;9.000;2023-12-20T10:31:35;28.25;;;23.92;;
56037;SDS011;41907;47.848;9.000;2023-12-20T10:34:02;28.33;;;20.33;;
56037;SDS011;41907;47.848;9.000;2023-12-20T10:36:29;26.55;;;19.23;;
56037;SDS011;41907;47.848;9.000;2023-12-20T10:38:55;15.70;;;12.35;;
56037;SDS011;41907;47.848;9.000;2023-12-20T10:43:51;5.45;;;4.85;;
56037;SDS011;41907;47.848;9.000;2023-12-20T10:46:17;5.57;;;4.20;;
56037;SDS011;41907;47.848;9.000;2023-12-20T10:48:43;11.13;;;5.95;;
56037;SDS011;41907;47.848;9.000;2023-12-20T10:51:10;11.02;;;6.63;;
56037;SDS011;41907;47.848;9.000;2023-12-20T10:53:36;7.00;;;5.47;;
56037;SDS011;41907;47.848;9.000;2023-12-20T10:56:04;8.40;;;5.78;;
56037;SDS011;41907;47.848;9.000;2023-12-20T10:58:33;8.45;;;6.40;;
56037;SDS011;41907;47.848;9.000;2023-12-20T11:01:01;7.78;;;5.75;;
56037;SDS011;41907;47.848;9.000;2023-12-20T11:03:28;7.97;;;4.65;;
56037;SDS011;41907;47.848;9.000;2023-12-20T11:06:07;7.28;;;5.90;;
56037;SDS011;41907;47.848;9.000;2023-12-20T11:11:17;13.82;;;10.75;;
56037;SDS011;41907;47.848;9.000;2023-12-20T11:14:02;8.20;;;5.93;;
56037;SDS011;41907;47.848;9.000;2023-12-20T11:16:32;9.77;;;6.63;;
56037;SDS011;41907;47.848;9.000;2023-12-20T11:19:04;5.65;;;4.13;;
56037;SDS011;41907;47.848;9.000;2023-12-20T11:21:30;6.38;;;3.38;;
56037;SDS011;41907;47.848;9.000;2023-12-20T11:23:55;4.10;;;2.90;;
56037;SDS011;41907;47.848;9.000;2023-12-20T11:26:26;18.13;;;9.60;;
56037;SDS011;41907;47.848;9.000;2023-12-20T11:28:53;10.38;;;6.72;;
56037;SDS011;41907;47.848;9.000;2023-12-20T11:31:19;7.80;;;5.25;;
56037;SDS011;41907;47.848;9.000;2023-12-20T11:33:44;5.93;;;3.00;;
56037;SDS011;41907;47.848;9.000;2023-12-20T11:36:18;6.88;;;2.88;;
56037;SDS011;41907;47.848;9.000;2023-12-20T11:38:53;14.40;;;4.70;;
56037;SDS011;41907;47.848;9.000;2023-12-20T11:41:22;9.52;;;2.85;;
56037;SDS011;41907;47.848;9.000;2023-12-20T11:43:48;2.70;;;1.35;;
56037;SDS011;41907;47.848;9.000;2023-12-20T11:46:14;2.40;;;1.50;;
56037;SDS011;41907;47.848;9.000;2023-12-20T11:48:39;3.38;;;2.40;;
56037;SDS011;41907;47.848;9.000;2023-12-20T11:51:14;2.35;;;0.98;;
56037;SDS011;41907;47.848;9.000;2023-12-20T11:53:40;0.77;;;0.67;;
56037;SDS011;41907;47.848;9.000;2023-12-20T11:56:07;0.57;;;0.50;;
56037;SDS011;41907;47.848;9.000;2023-12-20T11:58:36;0.40;;;0.40;;
56037;SDS011;41907;47.848;9.000;2023-12-20T12:01:01;0.50;;;0.50;;
56037;SDS011;41907;47.848;9.000;2023-12-20T12:03:27;16.77;;;9.90;;
56037;SDS011;41907;47.848;9.000;2023-12-20T12:05:53;1.20;;;0.80;;
56037;SDS011;41907;47.848;9.000;2023-12-20T12:08:18;0.50;;;0.50;;
56037;SDS011;41907;47.848;9.000;2023-12-20T12:10:44;0.30;;;0.30;;
56037;SDS011;41907;47.848;9.000;2023-12-20T12:13:09;0.25;;;0.25;;
56037;SDS011;41907;47.848;9.000;2023-12-20T12:15:36;0.40;;;0.40;;
56037;SDS011;41907;47.848;9.000;2023-12-20T12:18:02;1.55;;;0.40;;
56037;SDS011;41907;47.848;9.000;2023-12-20T12:20:28;0.47;;;0.30;;
56037;SDS011;41907;47.848;9.000;2023-12-20T12:23:02;1.38;;;1.20;;
56037;SDS011;41907;47.848;9.000;2023-12-20T12:27:59;1.25;;;0.50;;
56037;SDS011;41907;47.848;9.000;2023-12-20T12:30:25;199.00;;;70.97;;
56037;SDS011;41907;47.848;9.000;2023-12-20T12:32:52;72.43;;;27.08;;
56037;SDS011;41907;47.848;9.000;2023-12-20T12:35:17;10.00;;;5.30;;
56037;SDS011;41907;47.848;9.000;2023-12-20T12:37:43;12.35;;;6.38;;
56037;SDS011;41907;47.848;9.000;2023-12-20T12:40:09;4.80;;;2.90;;
56037;SDS011;41907;47.848;9.000;2023-12-20T12:42:36;2.08;;;1.33;;
56037;SDS011;41907;47.848;9.000;2023-12-20T12:45:02;2.13;;;1.17;;
56037;SDS011;41907;47.848;9.000;2023-12-20T12:47:28;3.65;;;1.63;;
56037;SDS011;41907;47.848;9.000;2023-12-20T12:49:53;3.55;;;2.10;;
56037;SDS011;41907;47.848;9.000;2023-12-20T12:52:19;3.67;;;1.73;;
56037;SDS011;41907;47.848;9.000;2023-12-20T12:54:45;13.30;;;5.85;;
56037;SDS011;41907;47.848;9.000;2023-12-20T12:57:10;6.57;;;2.75;;
56037;SDS011;41907;47.848;9.000;2023-12-20T12:59:36;1.05;;;0.80;;
56037;SDS011;41907;47.848;9.000;2023-12-20T13:02:02;1.20;;;0.77;;
56037;SDS011;41907;47.848;9.000;2023-12-20T13:04:27;4.03;;;2.13;;
56037;SDS011;41907;47.848;9.000;2023-12-20T13:06:52;2.15;;;0.95;;
56037;SDS011;41907;47.848;9.000;2023-12-20T13:09:18;14.93;;;7.40;;
56037;SDS011;41907;47.848;9.000;2023-12-20T13:11:44;6.13;;;2.95;;
56037;SDS011;41907;47.848;9.000;2023-12-20T13:14:09;6.45;;;3.50;;
56037;SDS011;41907;47.848;9.000;2023-12-20T13:16:40;7.78;;;3.80;;
56037;SDS011;41907;47.848;9.000;2023-12-20T13:19:06;2.53;;;1.42;;
56037;SDS011;41907;47.848;9.000;2023-12-20T13:21:31;1.52;;;0.95;;
56037;SDS011;41907;47.848;9.000;2023-12-20T13:23:56;3.30;;;2.10;;
56037;SDS011;41907;47.848;9.000;2023-12-20T13:26:22;2.38;;;1.42;;
56037;SDS011;41907;47.848;9.000;2023-12-20T13:28:47;2.08;;;1.20;;
56037;SDS011;41907;47.848;9.000;2023-12-20T13:31:13;1.40;;;1.30;;
56037;SDS011;41907;47.848;9.000;2023-12-20T13:33:38;1.52;;;1.42;;
56037;SDS011;41907;47.848;9.000;2023-12-20T13:36:04;3.85;;;3.20;;
56037;SDS011;41907;47.848;9.000;2023-12-20T13:38:30;1.92;;;1.33;;
56037;SDS011;41907;47.848;9.000;2023-12-20T13:40:55;1.63;;;1.52;;
56037;SDS011;41907;47.848;9.000;2023-12-20T13:43:23;2.28;;;1.77;;
56037;SDS011;41907;47.848;9.000;2023-12-20T13:45:49;11.75;;;5.63;;
56037;SDS011;41907;47.848;9.000;2023-12-20T13:48:14;2.53;;;1.83;;
56037;SDS011;41907;47.848;9.000;2023-12-20T13:50:40;1.85;;;0.90;;
56037;SDS011;41907;47.848;9.000;2023-12-20T13:53:05;1.63;;;0.82;;
56037;SDS011;41907;47.848;9.000;2023-12-20T13:55:31;2.38;;;1.33;;
56037;SDS011;41907;47.848;9.000;2023-12-20T13:57:56;1.52;;;0.60;;
56037;SDS011;41907;47.848;9.000;2023-12-20T14:00:22;1.95;;;0.73;;
56037;SDS011;41907;47.848;9.000;2023-12-20T14:02:48;1.05;;;0.70;;
56037;SDS011;41907;47.848;9.000;2023-12-20T14:05:14;2.30;;;0.75;;
56037;SDS011;41907;47.848;9.000;2023-12-20T14:07:45;3.45;;;1.33;;
56037;SDS011;41907;47.848;9.000;2023-12-20T14:10:15;1.33;;;0.90;;
56037;SDS011;41907;47.848;9.000;2023-12-20T14:12:41;2.20;;;1.25;;
56037;SDS011;41907;47.848;9.000;2023-12-20T14:15:06;2.85;;;1.10;;
56037;SDS011;41907;47.848;9.000;2023-12-20T14:17:36;1.83;;;0.80;;
56037;SDS011;41907;47.848;9.000;2023-12-20T14:20:04;1.58;;;0.90;;
56037;SDS011;41907;47.848;9.000;2023-12-20T14:22:33;2.25;;;0.70;;
56037;SDS011;41907;47.848;9.000;2023-12-20T14:24:59;1.60;;;0.70;;
56037;SDS011;41907;47.848;9.000;2023-12-20T14:27:24;5.38;;;1.00;;
56037;SDS011;41907;47.848;9.000;2023-12-20T14:29:52;3.83;;;1.38;;
56037;SDS011;41907;47.848;9.000;2023-12-20T14:32:20;2.83;;;0.90;;
56037;SDS011;41907;47.848;9.000;2023-12-20T14:34:46;2.05;;;1.13;;
56037;SDS011;41907;47.848;9.000;2023-12-20T14:37:11;3.88;;;1.52;;
56037;SDS011;41907;47.848;9.000;2023-12-20T14:39:37;2.50;;;1.20;;